Time;durP1;ratioP1;P1;durP2;ratioP2;P2;SDS_P1;SDS_P2;PMS_P1;PMS_P2;Temp;Humidity;BMP_temperature;BMP_pressure;BME280_temperature;BME280_humidity;BME280_pressure;Samples;Min_cycle;Max_cycle;Signal;HPM_P1;HPM_P2
2021/05/30 00:00:05;;;;;;;4.47;3.00;;;11.80;91.70;;;;;;5052991;28;20013;-74
2021/05/30 00:02:31;;;;;;;5.63;3.28;;;11.70;92.00;;;;;;5067652;28;20070;-74
2021/05/30 00:04:56;;;;;;;4.68;2.97;;;11.70;92.00;;;;;;5081002;28;20104;-74
2021/05/30 00:07:23;;;;;;;4.40;2.65;;;11.60;92.50;;;;;;5066152;28;20126;-74
2021/05/30 00:09:51;;;;;;;3.65;2.75;;;11.60;92.60;;;;;;5072307;28;20035;-74
2021/05/30 00:12:16;;;;;;;4.25;2.70;;;11.50;92.80;;;;;;5069492;28;20406;-74
2021/05/30 00:14:42;;;;;;;4.03;2.97;;;11.40;93.70;;;;;;5078288;28;20041;-74
2021/05/30 00:17:07;;;;;;;3.97;2.78;;;11.40;93.50;;;;;;5078443;28;20016;-73
2021/05/30 00:19:33;;;;;;;4.38;2.70;;;11.30;93.40;;;;;;5073173;28;20027;-73
2021/05/30 00:21:58;;;;;;;4.50;2.85;;;11.20;94.30;;;;;;5073498;28;20055;-74
2021/05/30 00:24:24;;;;;;;6.57;2.80;;;11.20;95.10;;;;;;5069018;28;20485;-74
2021/05/30 00:26:49;;;;;;;5.18;2.90;;;11.10;95.10;;;;;;5071931;28;20089;-75
2021/05/30 00:29:15;;;;;;;3.85;2.97;;;11.10;95.30;;;;;;5067004;28;20050;-74
2021/05/30 00:31:40;;;;;;;4.68;3.00;;;11.10;95.90;;;;;;5079217;28;20081;-74
2021/05/30 00:34:06;;;;;;;7.93;3.35;;;11.00;96.40;;;;;;5068050;28;20466;-73
2021/05/30 00:36:32;;;;;;;8.75;3.00;;;11.00;96.80;;;;;;5069309;28;20479;-74
2021/05/30 00:38:57;;;;;;;5.10;3.00;;;10.90;96.80;;;;;;5072803;28;20238;-74
2021/05/30 00:41:23;;;;;;;4.63;3.25;;;10.90;97.60;;;;;;5065957;28;20025;-74
2021/05/30 00:43:51;;;;;;;4.38;3.20;;;10.80;98.00;;;;;;5078915;28;20051;-74
2021/05/30 00:46:17;;;;;;;4.03;3.05;;;10.70;98.30;;;;;;5072718;28;20040;-74
2021/05/30 00:48:43;;;;;;;8.45;3.30;;;10.70;98.40;;;;;;5071761;28;20031;-74
2021/05/30 00:51:08;;;;;;;4.00;2.90;;;10.70;98.60;;;;;;5066827;28;20037;-74
2021/05/30 00:53:35;;;;;;;4.00;3.00;;;10.70;98.80;;;;;;5072402;28;20372;-74
2021/05/30 00:56:04;;;;;;;6.68;3.35;;;10.60;99.00;;;;;;5071327;28;20490;-73
2021/05/30 00:58:30;;;;;;;5.18;2.92;;;10.60;99.70;;;;;;5065145;28;20043;-73
2021/05/30 01:00:55;;;;;;;8.02;3.45;;;10.60;99.90;;;;;;5084323;28;20020;-73
2021/05/30 01:03:21;;;;;;;5.85;3.58;;;10.60;99.90;;;;;;5074408;28;20818;-73
2021/05/30 01:05:47;;;;;;;6.50;3.40;;;10.60;99.90;;;;;;5067870;28;20115;-74
2021/05/30 01:08:15;;;;;;;7.30;3.30;;;10.50;99.90;;;;;;5069243;28;20029;-74
2021/05/30 01:10:45;;;;;;;7.65;3.53;;;10.60;99.90;;;;;;5056252;28;20051;-74
2021/05/30 01:13:12;;;;;;;5.15;3.42;;;10.50;99.90;;;;;;5083074;28;20060;-74
2021/05/30 01:15:39;;;;;;;5.05;3.47;;;10.50;99.90;;;;;;5063340;28;20029;-74
2021/05/30 01:18:05;;;;;;;6.60;3.42;;;10.50;99.90;;;;;;5080862;28;20032;-74
2021/05/30 01:20:31;;;;;;;6.65;3.65;;;10.50;99.90;;;;;;5069165;28;20027;-74
2021/05/30 01:22:56;;;;;;;6.20;3.20;;;10.40;99.90;;;;;;5070315;28;20020;-74
2021/05/30 01:25:25;;;;;;;6.00;3.88;;;10.40;99.90;;;;;;5062144;28;20079;-74
2021/05/30 01:27:52;;;;;;;5.93;3.50;;;10.40;99.90;;;;;;5081568;28;20051;-73
2021/05/30 01:30:20;;;;;;;6.13;3.80;;;10.40;99.90;;;;;;5074356;28;20120;-73
2021/05/30 01:32:46;;;;;;;4.03;3.10;;;10.30;99.90;;;;;;5068103;28;20056;-74
2021/05/30 01:35:13;;;;;;;5.47;3.40;;;10.30;99.90;;;;;;5063684;28;20040;-74
2021/05/30 01:37:40;;;;;;;8.50;3.58;;;10.30;99.90;;;;;;5076481;28;20081;-74
2021/05/30 01:40:06;;;;;;;8.15;3.97;;;10.20;99.90;;;;;;5072399;28;20036;-74
2021/05/30 01:42:32;;;;;;;5.90;3.78;;;10.20;99.90;;;;;;5073806;28;20051;-74
2021/05/30 01:44:57;;;;;;;4.63;3.22;;;10.20;99.90;;;;;;5073838;28;20055;-73
2021/05/30 01:47:23;;;;;;;5.03;3.70;;;10.10;99.90;;;;;;5074840;28;20138;-74
2021/05/30 01:49:48;;;;;;;5.68;3.88;;;10.00;99.90;;;;;;5081389;28;20043;-74
2021/05/30 01:52:14;;;;;;;7.63;3.38;;;10.00;99.90;;;;;;5066325;28;20078;-74
2021/05/30 01:54:43;;;;;;;9.75;3.88;;;10.00;99.90;;;;;;5076047;28;20112;-74
2021/05/30 01:57:10;;;;;;;6.82;3.53;;;10.00;99.90;;;;;;5064720;28;20024;-74
2021/05/30 01:59:37;;;;;;;5.85;3.42;;;9.90;99.90;;;;;;5065228;28;20474;-73
2021/05/30 02:02:04;;;;;;;6.20;3.67;;;9.80;99.90;;;;;;5066251;28;20060;-74
2021/05/30 02:04:35;;;;;;;9.30;3.60;;;9.80;99.90;;;;;;5075464;28;20042;-74
2021/05/30 02:07:01;;;;;;;;;;;9.80;99.90;;;;;;5070049;28;20044;-74
2021/05/30 02:09:29;;;;;;;7.25;3.40;;;9.80;99.90;;;;;;5069242;28;19917;-74
2021/05/30 02:11:54;;;;;;;6.43;3.90;;;9.80;99.90;;;;;;5072253;28;20033;-74
2021/05/30 02:14:20;;;;;;;6.43;3.65;;;9.80;99.90;;;;;;5063484;28;20650;-74
2021/05/30 02:16:46;;;;;;;6.53;3.75;;;9.70;99.90;;;;;;5068405;28;20043;-73
2021/05/30 02:19:12;;;;;;;7.10;3.65;;;9.70;99.90;;;;;;5067894;28;20032;-74
2021/05/30 02:21:45;;;;;;;7.90;3.60;;;9.70;99.90;;;;;;5068640;28;20020;-73
2021/05/30 02:24:12;;;;;;;9.23;3.55;;;9.70;99.90;;;;;;5066542;28;20035;-73
2021/05/30 02:26:38;;;;;;;5.63;3.92;;;9.80;99.90;;;;;;5078713;28;20482;-74
2021/05/30 02:29:05;;;;;;;5.25;3.40;;;9.70;99.90;;;;;;5069527;28;20035;-73
2021/05/30 02:31:31;;;;;;;6.28;4.13;;;9.70;99.90;;;;;;5079037;28;20101;-74
2021/05/30 02:33:57;;;;;;;6.82;3.72;;;9.70;99.90;;;;;;5058677;28;20099;-74
2021/05/30 02:36:23;;;;;;;9.75;4.05;;;9.60;99.90;;;;;;5070839;28;20158;-74
2021/05/30 02:38:49;;;;;;;5.53;3.50;;;9.60;99.90;;;;;;5061584;28;20046;-74
2021/05/30 02:41:14;;;;;;;5.30;3.60;;;9.60;99.90;;;;;;5062041;28;20032;-73
2021/05/30 02:43:40;;;;;;;9.88;3.70;;;9.60;99.90;;;;;;5070111;28;20060;-74
2021/05/30 02:46:05;;;;;;;5.75;3.78;;;9.50;99.90;;;;;;5055993;28;20028;-73
2021/05/30 02:48:31;;;;;;;5.88;3.60;;;9.50;99.90;;;;;;5079183;28;20020;-74
2021/05/30 02:51:00;;;;;;;5.70;3.65;;;9.50;99.90;;;;;;5059236;28;20561;-73
2021/05/30 02:53:32;;;;;;;5.38;3.25;;;9.50;99.90;;;;;;5071755;28;20042;-74
2021/05/30 02:56:00;;;;;;;6.40;3.63;;;9.50;99.90;;;;;;5078953;28;20020;-74
2021/05/30 02:58:26;;;;;;;5.40;3.35;;;9.50;99.90;;;;;;5066546;28;20035;-74
2021/05/30 03:00:53;;;;;;;5.10;3.30;;;9.50;99.90;;;;;;5078663;28;20425;-73
2021/05/30 03:03:19;;;;;;;4.03;2.95;;;9.50;99.90;;;;;;5065227;28;20028;-74
2021/05/30 03:05:45;;;;;;;6.68;3.28;;;9.50;99.90;;;;;;5065038;28;20043;-74
2021/05/30 03:08:10;;;;;;;4.50;3.58;;;9.50;99.90;;;;;;5077131;28;20123;-74
2021/05/30 03:10:36;;;;;;;9.02;3.92;;;9.50;99.90;;;;;;5074982;28;20480;-74
2021/05/30 03:13:02;;;;;;;4.45;3.38;;;9.50;99.90;;;;;;5067770;28;20059;-73
2021/05/30 03:15:28;;;;;;;8.15;3.50;;;9.50;99.90;;;;;;5057808;28;20502;-73
2021/05/30 03:17:53;;;;;;;6.25;3.55;;;9.50;99.90;;;;;;5061983;28;20031;-74
2021/05/30 03:20:19;;;;;;;7.57;3.78;;;9.60;99.90;;;;;;5064830;28;20025;-74
2021/05/30 03:22:45;;;;;;;3.60;3.20;;;9.50;99.90;;;;;;5074922;28;20425;-73
2021/05/30 03:25:11;;;;;;;7.15;3.40;;;9.60;99.90;;;;;;5062007;28;20040;-73
2021/05/30 03:27:36;;;;;;;8.60;4.10;;;9.50;99.90;;;;;;5075555;28;20054;-74
2021/05/30 03:30:04;;;;;;;4.07;2.90;;;9.50;99.90;;;;;;5062491;28;20021;-74
2021/05/30 03:32:30;;;;;;;6.07;3.38;;;9.50;99.90;;;;;;5070007;28;20123;-73
2021/05/30 03:34:55;;;;;;;4.95;2.95;;;9.50;99.90;;;;;;5065744;28;20571;-73
2021/05/30 03:37:21;;;;;;;6.60;3.30;;;9.60;99.90;;;;;;5070237;28;20043;-74
2021/05/30 03:39:47;;;;;;;3.78;2.63;;;9.50;99.90;;;;;;5074177;28;20025;-74
2021/05/30 03:42:19;;;;;;;5.75;3.05;;;9.60;99.90;;;;;;5073252;28;20041;-74
2021/05/30 03:44:45;;;;;;;13.25;3.22;;;9.60;99.90;;;;;;5066484;28;20036;-73
2021/05/30 03:47:12;;;;;;;4.03;2.85;;;9.60;99.90;;;;;;5077954;28;20390;-74
2021/05/30 03:49:39;;;;;;;5.55;2.90;;;9.70;99.90;;;;;;5073608;28;20090;-73
2021/05/30 03:52:06;;;;;;;4.25;2.70;;;9.70;99.90;;;;;;5081077;28;20085;-74
2021/05/30 03:54:31;;;;;;;5.50;3.10;;;9.70;99.90;;;;;;5067214;28;20028;-73
2021/05/30 03:56:57;;;;;;;7.97;2.88;;;9.70;99.90;;;;;;5085444;28;20047;-73
2021/05/30 03:59:22;;;;;;;7.20;2.90;;;9.70;99.90;;;;;;5077389;28;20027;-73
2021/05/30 04:01:48;;;;;;;7.40;3.33;;;9.70;99.90;;;;;;5082111;28;20021;-73
2021/05/30 04:04:13;;;;;;;5.63;3.40;;;9.70;99.90;;;;;;5073427;28;20032;-74
2021/05/30 04:06:39;;;;;;;7.07;2.97;;;9.70;99.90;;;;;;5068617;28;20040;-73
2021/05/30 04:09:04;;;;;;;6.72;3.30;;;9.80;99.90;;;;;;5072954;28;20043;-73
2021/05/30 04:11:30;;;;;;;3.97;2.78;;;9.80;99.90;;;;;;5074925;28;20385;-73
2021/05/30 04:13:55;;;;;;;5.18;3.22;;;9.80;99.90;;;;;;5072687;28;20041;-73
2021/05/30 04:16:21;;;;;;;5.10;3.03;;;9.90;99.90;;;;;;5071447;28;20538;-73
2021/05/30 04:18:46;;;;;;;8.23;3.13;;;9.90;99.90;;;;;;5077939;28;20027;-74
2021/05/30 04:21:12;;;;;;;4.68;3.00;;;9.90;99.90;;;;;;5079339;28;20034;-73
2021/05/30 04:23:38;;;;;;;4.93;3.00;;;10.00;99.90;;;;;;5062827;28;20024;-74
2021/05/30 04:26:03;;;;;;;5.93;2.88;;;10.00;99.90;;;;;;5061766;28;20079;-74
2021/05/30 04:28:29;;;;;;;5.57;3.15;;;10.00;99.90;;;;;;5068348;28;20038;-73
2021/05/30 04:30:54;;;;;;;4.78;2.90;;;10.10;99.90;;;;;;5078084;28;20024;-73
2021/05/30 04:33:20;;;;;;;4.38;2.40;;;10.10;99.90;;;;;;5076422;28;20506;-73
2021/05/30 04:35:46;;;;;;;4.43;3.03;;;10.20;99.90;;;;;;5075283;28;20036;-73
2021/05/30 04:38:12;;;;;;;5.50;3.05;;;10.20;99.90;;;;;;5076116;28;20483;-73
2021/05/30 04:40:37;;;;;;;5.15;3.00;;;10.20;99.90;;;;;;5076045;28;20024;-73
2021/05/30 04:43:03;;;;;;;4.90;2.70;;;10.30;99.90;;;;;;5064988;28;20113;-74
2021/05/30 04:45:29;;;;;;;6.45;3.10;;;10.30;99.90;;;;;;5069226;28;20107;-74
2021/05/30 04:47:54;;;;;;;3.83;2.65;;;10.30;99.90;;;;;;5069156;28;20028;-74
2021/05/30 04:50:20;;;;;;;4.38;2.95;;;10.40;99.90;;;;;;5075246;28;20065;-74
2021/05/30 04:52:45;;;;;;;3.95;3.10;;;10.40;99.90;;;;;;5073555;28;20035;-74
2021/05/30 04:55:11;;;;;;;4.25;2.70;;;10.50;99.90;;;;;;5067647;28;20167;-74
2021/05/30 04:57:39;;;;;;;4.18;2.90;;;10.50;99.90;;;;;;5065970;28;20039;-74
2021/05/30 05:00:06;;;;;;;3.63;2.45;;;10.60;99.90;;;;;;5057379;28;20117;-75
2021/05/30 05:02:32;;;;;;;7.22;2.80;;;10.60;99.90;;;;;;5071196;28;20051;-74
2021/05/30 05:04:57;;;;;;;8.55;2.60;;;10.70;99.90;;;;;;5055602;28;20195;-74
2021/05/30 05:07:23;;;;;;;4.13;2.63;;;10.70;99.40;;;;;;5068960;28;20124;-74
2021/05/30 05:09:48;;;;;;;4.93;2.60;;;10.70;99.30;;;;;;5063965;28;20024;-74
2021/05/30 05:12:14;;;;;;;5.05;2.63;;;10.80;99.90;;;;;;5065231;28;20569;-74
2021/05/30 05:14:39;;;;;;;3.42;2.22;;;10.80;99.50;;;;;;5061561;28;20388;-74
2021/05/30 05:17:05;;;;;;;3.45;2.13;;;10.90;98.60;;;;;;5064708;28;20364;-74
2021/05/30 05:19:30;;;;;;;6.95;2.30;;;10.90;98.50;;;;;;5067590;28;20042;-74
2021/05/30 05:21:56;;;;;;;3.83;2.50;;;11.00;98.30;;;;;;5064192;28;20040;-74
2021/05/30 05:24:22;;;;;;;6.63;2.38;;;11.00;98.80;;;;;;5060625;28;20485;-75
2021/05/30 05:26:48;;;;;;;5.38;2.70;;;11.10;99.10;;;;;;5060133;28;20518;-74
2021/05/30 05:29:13;;;;;;;3.33;2.65;;;11.10;99.70;;;;;;5059826;28;20519;-74
2021/05/30 05:31:39;;;;;;;5.22;2.50;;;11.20;98.80;;;;;;5067145;28;20025;-74
2021/05/30 05:34:04;;;;;;;3.15;2.40;;;11.20;98.10;;;;;;5066037;28;20155;-74
2021/05/30 05:36:29;;;;;;;4.35;2.72;;;11.30;97.60;;;;;;5062218;28;20085;-75
2021/05/30 05:38:55;;;;;;;6.70;3.00;;;11.30;97.70;;;;;;5061862;28;20757;-75
2021/05/30 05:41:20;;;;;;;5.93;2.83;;;11.40;98.40;;;;;;5063082;28;20089;-74
2021/05/30 05:43:46;;;;;;;3.58;2.45;;;11.40;98.50;;;;;;5067903;28;20059;-74
2021/05/30 05:46:12;;;;;;;6.78;2.65;;;11.40;97.30;;;;;;5053906;28;20025;-74
2021/05/30 05:48:37;;;;;;;2.45;2.05;;;11.50;96.20;;;;;;5065451;28;20044;-74
2021/05/30 05:51:03;;;;;;;6.07;2.40;;;11.60;99.00;;;;;;5064890;28;20023;-74
2021/05/30 05:53:28;;;;;;;3.97;2.00;;;11.70;96.60;;;;;;5064318;28;20486;-74
2021/05/30 05:55:54;;;;;;;4.60;2.00;;;11.80;95.00;;;;;;5055341;28;20134;-75
2021/05/30 05:58:19;;;;;;;4.38;1.90;;;11.80;94.40;;;;;;5058089;28;20037;-75
2021/05/30 06:00:45;;;;;;;3.65;2.10;;;11.80;93.70;;;;;;5056987;28;20029;-75
2021/05/30 06:03:11;;;;;;;5.13;2.30;;;11.90;94.50;;;;;;5059503;28;21211;-74
2021/05/30 06:05:36;;;;;;;3.70;1.92;;;12.00;92.00;;;;;;5061461;28;20032;-74
2021/05/30 06:08:02;;;;;;;4.65;2.10;;;12.10;92.80;;;;;;5060307;28;20546;-75
2021/05/30 06:10:28;;;;;;;3.90;1.85;;;12.10;92.30;;;;;;5062472;28;20020;-75
2021/05/30 06:12:56;;;;;;;8.85;2.25;;;12.10;91.70;;;;;;5064222;28;20478;-74
2021/05/30 06:15:24;;;;;;;3.13;1.80;;;12.20;91.90;;;;;;5058454;28;20588;-75
2021/05/30 06:18:15;;;;;;;3.83;2.05;;;12.20;91.20;;;;;;5063225;28;20024;-74
2021/05/30 06:20:42;;;;;;;4.63;2.20;;;12.30;90.70;;;;;;5062568;28;20081;-75
2021/05/30 06:23:08;;;;;;;3.78;1.95;;;12.30;90.90;;;;;;5062866;28;20040;-74
2021/05/30 06:25:35;;;;;;;3.40;1.90;;;12.30;91.10;;;;;;5064637;28;20032;-74
2021/05/30 06:28:01;;;;;;;3.72;1.85;;;12.40;91.00;;;;;;5064524;28;20067;-74
2021/05/30 06:30:28;;;;;;;3.10;1.83;;;12.40;91.40;;;;;;5064406;28;20024;-74
2021/05/30 06:32:54;;;;;;;5.82;1.90;;;12.50;89.10;;;;;;5063689;28;20059;-74
2021/05/30 06:35:20;;;;;;;4.00;2.15;;;12.60;88.30;;;;;;5063543;28;20032;-74
2021/05/30 06:37:46;;;;;;;2.85;1.83;;;12.60;87.70;;;;;;5063966;28;20024;-74
2021/05/30 06:40:12;;;;;;;3.95;1.95;;;12.70;89.30;;;;;;5063889;28;20083;-75
2021/05/30 06:42:37;;;;;;;4.65;2.10;;;12.80;88.00;;;;;;5063984;28;20032;-75
2021/05/30 06:45:04;;;;;;;4.70;1.85;;;12.80;90.70;;;;;;5063534;28;20028;-74
2021/05/30 06:47:30;;;;;;;5.30;1.75;;;12.90;86.30;;;;;;5066436;28;20020;-74
2021/05/30 06:49:56;;;;;;;4.45;1.85;;;13.00;82.10;;;;;;5065043;28;20081;-73
2021/05/30 06:52:21;;;;;;;14.85;2.47;;;13.00;81.40;;;;;;5060159;28;20504;-76
2021/05/30 06:54:47;;;;;;;4.70;1.70;;;13.10;83.20;;;;;;5064772;28;20394;-72
2021/05/30 06:57:16;;;;;;;3.20;1.75;;;13.20;85.00;;;;;;5064033;28;20101;-73
2021/05/30 06:59:43;;;;;;;5.22;2.00;;;13.30;91.90;;;;;;5064824;28;20036;-75
2021/05/30 07:02:09;;;;;;;3.42;1.70;;;13.40;81.30;;;;;;5064313;28;20082;-75
2021/05/30 07:04:35;;;;;;;4.07;1.83;;;13.40;84.10;;;;;;5062468;28;20020;-75
2021/05/30 07:07:01;;;;;;;2.28;1.73;;;13.40;80.00;;;;;;5060618;28;20044;-74
2021/05/30 07:09:27;;;;;;;5.80;2.33;;;13.50;80.60;;;;;;5065173;28;20028;-74
2021/05/30 07:12:01;;;;;;;3.15;1.60;;;13.60;90.20;;;;;;5063533;28;20016;-74
2021/05/30 07:14:34;;;;;;;2.75;1.75;;;13.70;78.70;;;;;;5062380;28;20036;-74
2021/05/30 07:17:00;;;;;;;4.72;2.00;;;13.70;79.20;;;;;;5062802;28;20025;-73
2021/05/30 07:19:25;;;;;;;3.92;2.05;;;13.90;89.60;;;;;;5062216;28;20023;-75
2021/05/30 07:21:51;;;;;;;4.78;2.13;;;13.80;77.20;;;;;;5061979;28;20048;-74
2021/05/30 07:24:16;;;;;;;4.50;1.63;;;13.90;78.70;;;;;;5062575;28;20036;-74
2021/05/30 07:26:42;;;;;;;3.75;1.85;;;13.80;78.60;;;;;;5064707;28;20244;-73
2021/05/30 07:29:08;;;;;;;3.00;1.55;;;13.90;80.40;;;;;;5064757;28;20373;-74
2021/05/30 07:31:34;;;;;;;3.45;2.05;;;14.00;78.80;;;;;;5063425;28;20486;-74
2021/05/30 07:34:01;;;;;;;2.35;1.63;;;14.00;76.70;;;;;;5063320;28;20056;-72
2021/05/30 07:36:28;;;;;;;3.90;2.00;;;14.10;75.60;;;;;;5061886;28;20114;-73
2021/05/30 07:38:55;;;;;;;5.85;1.90;;;14.10;76.40;;;;;;5062023;28;20028;-73
2021/05/30 07:41:21;;;;;;;3.05;1.60;;;14.20;77.40;;;;;;5063813;28;20021;-74
2021/05/30 07:43:47;;;;;;;5.03;1.77;;;14.30;75.40;;;;;;5064208;28;20792;-77
2021/05/30 07:46:12;;;;;;;2.78;1.60;;;14.30;74.00;;;;;;5054765;28;20020;-75
2021/05/30 07:48:38;;;;;;;1.80;1.50;;;14.40;72.60;;;;;;5054569;28;20027;-73
2021/05/30 07:51:04;;;;;;;3.08;1.73;;;14.50;72.30;;;;;;5070682;28;20502;-74
2021/05/30 07:53:30;;;;;;;3.17;1.67;;;14.60;76.30;;;;;;5061352;28;20017;-72
2021/05/30 07:55:55;;;;;;;2.00;1.27;;;14.60;71.10;;;;;;5056328;28;20637;-72
2021/05/30 07:58:21;;;;;;;1.75;1.50;;;14.70;71.80;;;;;;5053345;28;20017;-72
2021/05/30 08:00:48;;;;;;;2.70;1.45;;;14.70;72.20;;;;;;5055612;28;20021;-73
2021/05/30 08:03:13;;;;;;;3.88;1.52;;;14.80;70.40;;;;;;5049983;28;20044;-73
2021/05/30 08:05:38;;;;;;;1.92;1.30;;;14.80;69.10;;;;;;5055671;28;20063;-74
2021/05/30 08:08:04;;;;;;;2.60;1.52;;;14.90;71.50;;;;;;5057255;28;20494;-74
2021/05/30 08:10:30;;;;;;;2.05;1.70;;;14.90;72.10;;;;;;5060620;28;20028;-73
2021/05/30 08:12:55;;;;;;;1.90;1.45;;;15.10;69.40;;;;;;5060308;28;20533;-74
2021/05/30 08:15:22;;;;;;;2.17;1.48;;;15.10;68.40;;;;;;5057244;28;20079;-73
2021/05/30 08:17:47;;;;;;;2.65;1.60;;;15.20;68.50;;;;;;5054113;28;20499;-73
2021/05/30 08:20:18;;;;;;;3.00;1.40;;;15.20;70.00;;;;;;5060869;28;20036;-72
2021/05/30 08:22:44;;;;;;;2.78;1.27;;;15.30;70.00;;;;;;5067105;28;20487;-73
2021/05/30 08:25:10;;;;;;;4.00;1.73;;;15.30;68.20;;;;;;5065848;28;20031;-75
2021/05/30 08:27:35;;;;;;;3.70;1.70;;;15.40;66.80;;;;;;5058962;28;20059;-72
2021/05/30 08:30:02;;;;;;;2.55;1.35;;;15.50;66.30;;;;;;5071017;28;20048;-74
2021/05/30 08:32:27;;;;;;;2.72;1.80;;;15.60;73.80;;;;;;5062513;28;20025;-72
2021/05/30 08:34:53;;;;;;;1.73;1.48;;;15.60;64.80;;;;;;5062321;28;20025;-72
2021/05/30 08:37:18;;;;;;;2.05;1.50;;;15.70;66.10;;;;;;5068245;28;20036;-71
2021/05/30 08:39:45;;;;;;;3.78;1.58;;;15.80;65.10;;;;;;5060623;28;20036;-73
2021/05/30 08:42:11;;;;;;;2.17;1.30;;;15.90;64.70;;;;;;5065277;28;20029;-74
2021/05/30 08:44:37;;;;;;;2.05;1.38;;;15.90;62.80;;;;;;5068679;28;20082;-72
2021/05/30 08:47:03;;;;;;;2.92;1.80;;;16.00;63.70;;;;;;5059059;28;20037;-75
2021/05/30 08:49:29;;;;;;;3.00;1.55;;;16.10;66.30;;;;;;5061243;28;20044;-75
2021/05/30 08:51:54;;;;;;;3.17;1.70;;;16.10;65.00;;;;;;5067754;28;20564;-75
2021/05/30 08:54:20;;;;;;;2.13;1.65;;;16.20;70.60;;;;;;5069800;28;20028;-75
2021/05/30 08:56:47;;;;;;;2.92;1.48;;;16.20;66.50;;;;;;5059824;28;20449;-76
2021/05/30 08:59:28;;;;;;;3.28;1.50;;;16.30;62.60;;;;;;5059650;28;20745;-76
2021/05/30 09:01:55;;;;;;;2.53;1.43;;;16.30;65.20;;;;;;5058367;28;20031;-77
2021/05/30 09:04:35;;;;;;;2.80;1.67;;;16.60;64.20;;;;;;5061393;28;20064;-76
2021/05/30 09:07:02;;;;;;;3.60;1.40;;;16.60;64.50;;;;;;5057972;28;20051;-74
2021/05/30 09:09:41;;;;;;;2.92;1.60;;;16.60;62.30;;;;;;5059888;28;20021;-76
2021/05/30 09:12:18;;;;;;;1.38;1.23;;;16.60;63.80;;;;;;5056296;28;20025;-75
2021/05/30 09:14:47;;;;;;;2.58;1.40;;;16.70;63.30;;;;;;5054876;28;20394;-75
2021/05/30 09:17:12;;;;;;;3.88;1.30;;;16.70;62.20;;;;;;5056832;28;20041;-75
2021/05/30 09:19:50;;;;;;;2.08;1.55;;;16.80;62.30;;;;;;5066443;28;20029;-76
2021/05/30 09:22:28;;;;;;;1.85;1.50;;;16.80;58.80;;;;;;5060678;28;20123;-75
2021/05/30 09:25:14;;;;;;;5.22;1.55;;;16.90;62.30;;;;;;5067376;28;20032;-77
2021/05/30 09:27:59;;;;;;;3.97;1.40;;;17.10;60.50;;;;;;5061797;28;20063;-78
2021/05/30 09:30:42;;;;;;;4.95;1.58;;;17.20;62.30;;;;;;5062382;28;20424;-79
2021/05/30 09:33:18;;;;;;;2.72;1.55;;;17.20;62.20;;;;;;5059818;28;20139;-77
2021/05/30 09:35:47;;;;;;;2.05;1.38;;;17.30;58.70;;;;;;5074994;28;20615;-79
2021/05/30 09:38:36;;;;;;;5.90;1.50;;;17.40;59.70;;;;;;5064980;28;20033;-78
2021/05/30 09:41:08;;;;;;;1.73;1.25;;;17.50;57.90;;;;;;5060448;28;20025;-78
2021/05/30 09:43:46;;;;;;;4.57;1.60;;;17.50;58.00;;;;;;5067250;28;20106;-78
2021/05/30 09:46:13;;;;;;;2.67;1.60;;;17.50;60.40;;;;;;5056325;28;20020;-78
2021/05/30 09:48:43;;;;;;;12.18;2.05;;;17.60;64.00;;;;;;5061250;28;20039;-78
2021/05/30 09:51:23;;;;;;;10.65;1.92;;;17.60;61.90;;;;;;5066334;28;20024;-78
2021/05/30 09:53:49;;;;;;;4.28;1.70;;;17.60;63.20;;;;;;5061993;28;20032;-78
2021/05/30 09:56:34;;;;;;;3.47;1.65;;;17.60;63.30;;;;;;5064628;28;20396;-86
2021/05/30 09:59:02;;;;;;;5.88;1.77;;;17.70;62.80;;;;;;5068207;28;20028;-77
2021/05/30 10:01:45;;;;;;;6.50;1.73;;;17.60;64.00;;;;;;5059604;28;20430;-77
2021/05/30 10:04:10;;;;;;;4.13;1.65;;;17.70;66.70;;;;;;5047935;28;20075;-77
2021/05/30 10:06:36;;;;;;;3.83;1.63;;;17.70;66.20;;;;;;5051745;28;20449;-77
2021/05/30 10:09:02;;;;;;;5.70;1.73;;;17.80;67.80;;;;;;5061986;28;20028;-78
2021/05/30 10:11:27;;;;;;;2.55;1.50;;;17.80;65.70;;;;;;5060222;28;20093;-77
2021/05/30 10:13:53;;;;;;;3.35;1.50;;;17.80;65.40;;;;;;5059496;28;20529;-77
2021/05/30 10:16:19;;;;;;;2.03;1.30;;;17.90;66.00;;;;;;5049094;28;20024;-78
2021/05/30 10:18:51;;;;;;;2.70;1.60;;;17.90;64.00;;;;;;5061017;28;20051;-77
2021/05/30 10:21:19;;;;;;;5.57;1.85;;;17.90;63.00;;;;;;5052736;28;20060;-76
2021/05/30 10:23:52;;;;;;;2.05;1.60;;;18.00;66.10;;;;;;5061612;28;20056;-77
2021/05/30 10:26:22;;;;;;;5.40;1.90;;;18.10;59.70;;;;;;5058198;28;20588;-76
2021/05/30 10:28:54;;;;;;;2.22;1.70;;;18.20;63.80;;;;;;5063362;28;20029;-76
2021/05/30 10:31:26;;;;;;;3.15;1.70;;;18.30;66.60;;;;;;5059159;28;20145;-78
2021/05/30 10:34:09;;;;;;;2.40;1.80;;;18.40;62.10;;;;;;5061553;28;20029;-77
2021/05/30 10:36:54;;;;;;;3.33;1.70;;;18.50;63.80;;;;;;5047615;28;20102;-76
2021/05/30 10:39:34;;;;;;;4.32;1.83;;;18.70;62.10;;;;;;5055070;28;20467;-76
2021/05/30 10:42:11;;;;;;;2.28;1.27;;;18.80;58.50;;;;;;5050631;28;20407;-76
2021/05/30 10:44:53;;;;;;;5.15;1.80;;;19.00;60.80;;;;;;5062702;28;20036;-77
2021/05/30 10:47:20;;;;;;;3.55;1.60;;;19.20;58.90;;;;;;5055285;28;20028;-76
2021/05/30 10:50:05;;;;;;;6.10;2.10;;;19.30;59.90;;;;;;5063357;28;20028;-76
2021/05/30 10:52:39;;;;;;;3.03;1.67;;;19.50;59.60;;;;;;5057686;28;20085;-76
2021/05/30 10:55:15;;;;;;;3.47;1.70;;;19.70;59.20;;;;;;5058280;28;20094;-77
2021/05/30 10:57:43;;;;;;;6.05;1.85;;;19.90;59.00;;;;;;5054328;28;20036;-77
2021/05/30 11:00:18;;;;;;;2.95;1.60;;;20.10;58.30;;;;;;5057067;28;20025;-76
2021/05/30 11:03:05;;;;;;;3.10;1.67;;;20.30;58.20;;;;;;5058023;28;20016;-76
2021/05/30 11:05:44;;;;;;;3.35;1.58;;;20.50;56.40;;;;;;5054691;28;20071;-76
2021/05/30 11:08:28;;;;;;;2.33;1.65;;;20.40;54.30;;;;;;5045302;28;20033;-76
2021/05/30 11:11:17;;;;;;;2.45;1.65;;;20.50;55.40;;;;;;5051695;28;20433;-77
2021/05/30 11:13:59;;;;;;;2.30;1.75;;;20.80;55.00;;;;;;5055418;28;20024;-76
2021/05/30 11:16:29;;;;;;;2.30;1.60;;;21.20;52.80;;;;;;5056477;28;20063;-76
2021/05/30 11:19:00;;;;;;;4.95;1.65;;;21.50;53.50;;;;;;5050754;28;20032;-78
2021/05/30 11:21:40;;;;;;;3.95;1.65;;;21.70;55.70;;;;;;5054559;28;20432;-78
2021/05/30 11:24:08;;;;;;;2.20;1.60;;;22.40;51.70;;;;;;5059241;28;20403;-76
2021/05/30 11:26:33;;;;;;;2.80;1.80;;;22.40;48.80;;;;;;5051923;28;20530;-74
2021/05/30 11:29:00;;;;;;;3.38;1.73;;;22.00;51.40;;;;;;5051367;28;20123;-76
2021/05/30 11:31:26;;;;;;;1.90;1.40;;;21.80;52.10;;;;;;5057663;28;20033;-76
2021/05/30 11:34:01;;;;;;;3.35;1.75;;;22.00;52.00;;;;;;5056290;28;20017;-74
2021/05/30 11:36:32;;;;;;;3.92;1.58;;;22.40;51.10;;;;;;5062753;28;20013;-76
2021/05/30 11:39:12;;;;;;;1.50;1.30;;;23.00;50.50;;;;;;5057191;28;20017;-76
2021/05/30 11:41:42;;;;;;;1.77;1.58;;;23.50;48.00;;;;;;5057702;28;20036;-76
2021/05/30 11:44:15;;;;;;;4.65;1.67;;;23.60;47.90;;;;;;5059909;28;20029;-76
2021/05/30 11:46:51;;;;;;;2.55;1.63;;;23.60;48.00;;;;;;5055157;28;20429;-76
2021/05/30 11:49:30;;;;;;;2.95;1.50;;;23.30;47.00;;;;;;5051245;28;20029;-76
2021/05/30 11:51:58;;;;;;;3.03;1.73;;;23.40;48.20;;;;;;5060975;28;20044;-78
2021/05/30 11:54:27;;;;;;;1.92;1.70;;;23.80;49.40;;;;;;5050199;28;20029;-77
2021/05/30 11:56:56;;;;;;;5.40;1.73;;;24.50;48.40;;;;;;5058227;28;20029;-77
2021/05/30 11:59:33;;;;;;;1.85;1.40;;;25.20;46.70;;;;;;5066318;28;20045;-77
2021/05/30 12:01:59;;;;;;;2.63;1.48;;;25.70;46.00;;;;;;5053687;28;20033;-76
2021/05/30 12:04:38;;;;;;;2.33;1.70;;;25.90;45.10;;;;;;5052484;28;20032;-79
2021/05/30 12:07:11;;;;;;;3.22;1.60;;;26.10;44.50;;;;;;5056230;28;20560;-76
2021/05/30 12:09:52;;;;;;;1.58;1.48;;;26.60;44.10;;;;;;5052346;28;20037;-77
2021/05/30 12:12:25;;;;;;;3.10;1.70;;;27.10;42.50;;;;;;5055537;28;20082;-77
2021/05/30 12:14:51;;;;;;;3.22;1.63;;;27.50;40.40;;;;;;5057938;28;20032;-78
2021/05/30 12:17:16;;;;;;;4.35;1.70;;;27.70;40.30;;;;;;5061929;28;20024;-77
2021/05/30 12:19:45;;;;;;;2.70;1.52;;;27.20;40.30;;;;;;5054154;28;20028;-78
2021/05/30 12:22:25;;;;;;;2.20;1.67;;;27.50;40.50;;;;;;5057389;28;20082;-79
2021/05/30 12:25:19;;;;;;;2.33;1.70;;;27.70;39.70;;;;;;5048244;28;20033;-78
2021/05/30 12:27:45;;;;;;;3.42;1.60;;;28.20;39.20;;;;;;5049997;28;20647;-78
2021/05/30 12:30:14;;;;;;;2.90;1.58;;;28.50;39.00;;;;;;5060254;28;20447;-77
2021/05/30 12:32:48;;;;;;;5.60;1.63;;;28.50;39.10;;;;;;5061453;28;20115;-76
2021/05/30 12:35:14;;;;;;;2.22;1.60;;;28.60;38.80;;;;;;5058660;28;20021;-77
2021/05/30 12:37:41;;;;;;;2.53;1.80;;;28.50;38.70;;;;;;5052213;28;20121;-81
2021/05/30 12:40:09;;;;;;;2.50;1.70;;;28.60;39.40;;;;;;5055238;28;20108;-84
2021/05/30 12:42:34;;;;;;;2.97;2.13;;;29.00;38.20;;;;;;5055579;28;20043;-77
2021/05/30 12:45:06;;;;;;;2.65;1.77;;;29.10;38.70;;;;;;5060997;28;20036;-84
2021/05/30 12:47:40;;;;;;;4.95;2.13;;;28.60;36.90;;;;;;5059801;28;20533;-80
2021/05/30 12:50:06;;;;;;;3.03;1.75;;;27.70;38.20;;;;;;5055572;28;20039;-80
2021/05/30 12:53:01;;;;;;;4.20;2.03;;;27.50;39.80;;;;;;5056566;28;20489;-78